KPNC/PNC METAR and TAF weather

Enter ICAO airport designator
Station Type Date Time Source
KPNC METAR 2020/01/26 00:53 UTC NOAA

KPNC 260053Z AUTO 12003KT 10SM SCT100 09/01 A2999 RMK AO2 SLP157 T00940011


Station Type Date Time Source
KPNC Decoded METAR 2020/01/26 00:53 UTC NOAA

PONCA CITY MUNICIPAL AIRPORT, OK, United States (KPNC) 36-44N 97-06W 308M
Jan 25, 2020 - 07:53 PM EST / 2020.01.26 0053 UTC
Wind: from the ESE (120 degrees) at 3 MPH (3 KT):0
Visibility: 10 mile(s):0
Sky conditions: partly cloudy
Temperature: 48.9 F (9.4 C)
Dew Point: 34.0 F (1.1 C)
Relative Humidity: 56%
Pressure (altimeter): 29.99 in. Hg (1015 hPa)
ob: KPNC 260053Z AUTO 12003KT 10SM SCT100 09/01 A2999 RMK AO2 SLP157 T00940011
cycle: 1

Station Type Date Time Source
KPNC TAF 2020/01/25 18:39 UTC NOAA

TAF KPNC 251736Z 2518/2618 14010KT P6SM BKN250
FM260000 VRB03KT P6SM BKN100
FM261300 32007KT P6SM SCT250

Example: see airport list